Samos, Greece
Current Conditions -  °F | °C
As of 5:50 PM on Thursday 18 Dec 2014 (Local Time) from LGSM Reporting Station
Broken Clouds Broken Clouds  
Wind Chill: 63°   Ceiling: 12000
Heat Index: 63°   Visibility: 6mi
Dew Point: 55°   Wind: 0mph
Humidity: 77%   Direction: NA
Pressure: 30"   Gusts: NA
Location:  37.76°N, 26.98°E
Report Text: LGSM 181450Z 00000KT 9999 SCT020 BKN120 17/13 Q1016
Loading
Personal Weather Stations






























Interactive Weather Map New forecast layout! Learn more

10-Day Weather Forecast

Advertisements
Track Severe Weather on mobile